< < Back
Terminal Aerodrome Forecast


Current Version              Previous Versions:   1  2  3  4  5  6  7  8  9  

Terminal Aerodrome Forecast

121
FTUS42 KFFC 311600 AAA
TAFMCN
TAF AMD
KMCN 311614Z 3116/0112 10004KT P6SM SCT040 BKN150
      TEMPO 3116/3118 BKN020
     FM311800 08005KT P6SM BKN050
     FM010000 07005KT P6SM BKN150
     FM010900 06008KT 6SM BR BKN008=



Latest METAR

062
SAUS80 KWBC 312300 RRB
MTRMCN
METAR KMCN 312253Z 03012KT 10SM FEW027 SCT070 BKN085 26/21 A2999 RMK AO2
SLP151 T02610206 $


USA.gov is the U.S. government's official web portal to all federal, state and local government web resources and services.